createdAt,value
2022-10-29T00:00:01.731Z,46.28
2022-10-29T00:02:50.217Z,46.25
2022-10-29T00:05:38.787Z,45.98
2022-10-29T00:08:27.719Z,45.97
2022-10-29T00:11:19.402Z,46.17
2022-10-29T00:14:07.921Z,46.08
2022-10-29T00:16:57.212Z,46.03
2022-10-29T00:19:45.613Z,45.61
2022-10-29T00:22:34.219Z,45.92
2022-10-29T00:25:25.069Z,45.84
2022-10-29T00:28:14.855Z,45.91
2022-10-29T00:31:07.033Z,45.87
2022-10-29T00:33:57.171Z,45.95
2022-10-29T00:36:45.544Z,45.69
2022-10-29T00:39:34.400Z,45.91
2022-10-29T00:42:22.785Z,45.70
2022-10-29T00:45:20.386Z,45.72
2022-10-29T00:48:10.773Z,45.90
2022-10-29T00:50:59.740Z,45.86
2022-10-29T00:53:51.470Z,45.92
2022-10-29T00:56:42.983Z,45.70
2022-10-29T00:59:31.762Z,45.96
2022-10-29T01:02:22.020Z,45.65
2022-10-29T01:05:11.299Z,45.76
2022-10-29T01:07:59.826Z,45.73
2022-10-29T01:10:57.919Z,45.81
2022-10-29T01:13:55.819Z,45.64
2022-10-29T01:16:50.943Z,45.56
2022-10-29T01:20:02.883Z,45.67
2022-10-29T01:22:58.780Z,45.81
2022-10-29T01:26:22.341Z,45.61
2022-10-29T01:29:23.410Z,45.51
2022-10-29T01:32:14.413Z,45.64
2022-10-29T01:35:06.363Z,45.62
2022-10-29T01:38:04.693Z,45.54
2022-10-29T01:40:57.467Z,45.26
2022-10-29T01:43:48.947Z,45.34
2022-10-29T01:46:41.132Z,45.40
2022-10-29T01:49:35.932Z,45.50
2022-10-29T01:52:24.807Z,45.37
2022-10-29T01:55:17.646Z,45.43
2022-10-29T01:58:07.006Z,45.77
2022-10-29T02:01:01.898Z,45.28
2022-10-29T02:03:55.640Z,45.37
2022-10-29T02:06:53.222Z,45.29
2022-10-29T02:09:44.996Z,45.29
2022-10-29T02:12:36.619Z,45.32
2022-10-29T02:15:27.154Z,45.20
2022-10-29T02:18:15.930Z,45.25
2022-10-29T02:21:04.402Z,45.24
2022-10-29T02:23:54.294Z,45.26
2022-10-29T02:26:42.837Z,45.16
2022-10-29T02:29:31.365Z,45.31
2022-10-29T02:32:19.867Z,45.29
2022-10-29T02:35:09.346Z,45.30
2022-10-29T02:37:57.776Z,45.45
2022-10-29T02:40:47.614Z,45.35
2022-10-29T02:43:38.501Z,45.13
2022-10-29T02:46:27.113Z,45.08
2022-10-29T02:49:15.577Z,45.13
2022-10-29T02:52:04.017Z,45.46
2022-10-29T02:54:52.447Z,45.12
2022-10-29T02:57:44.593Z,45.12
2022-10-29T03:00:33.020Z,45.15
2022-10-29T03:03:21.730Z,45.19
2022-10-29T03:06:16.388Z,45.33
2022-10-29T03:09:04.965Z,45.02
2022-10-29T03:11:53.456Z,45.33
2022-10-29T03:14:43.196Z,45.16
2022-10-29T03:17:31.719Z,45.22
2022-10-29T03:20:20.181Z,45.12
2022-10-29T03:23:08.607Z,44.91
2022-10-29T03:25:57.617Z,45.11
2022-10-29T03:31:40.855Z,45.25
2022-10-29T03:34:29.327Z,44.97
2022-10-29T03:37:17.952Z,45.27
2022-10-29T03:40:07.815Z,45.02
2022-10-29T03:42:56.462Z,45.10
2022-10-29T03:45:45.099Z,45.08
2022-10-29T03:48:35.054Z,45.05
2022-10-29T03:51:23.517Z,44.93
2022-10-29T03:54:11.953Z,45.04
2022-10-29T03:57:00.427Z,45.00
2022-10-29T03:59:51.642Z,45.07
2022-10-29T04:02:41.411Z,45.33
2022-10-29T04:05:31.284Z,44.91
2022-10-29T04:08:19.916Z,44.90
2022-10-29T04:11:08.782Z,44.80
2022-10-29T04:13:57.118Z,44.96
2022-10-29T04:16:45.564Z,44.73
2022-10-29T04:19:33.977Z,44.85
2022-10-29T04:28:43.598Z,44.29
2022-10-29T04:31:32.477Z,44.88
2022-10-29T04:34:20.954Z,44.78
2022-10-29T04:37:09.456Z,44.82
2022-10-29T04:39:59.169Z,44.79
2022-10-29T04:42:47.658Z,44.76
2022-10-29T04:45:36.127Z,44.39
2022-10-29T04:48:25.463Z,44.66
2022-10-29T04:51:21.035Z,44.43
2022-10-29T04:54:09.540Z,44.53
2022-10-29T04:56:59.420Z,44.55
2022-10-29T04:59:47.895Z,44.70
2022-10-29T05:02:37.318Z,44.60
2022-10-29T05:05:26.347Z,44.45
2022-10-29T05:08:15.353Z,44.70
2022-10-29T05:11:04.878Z,44.68
2022-10-29T05:13:54.674Z,44.58
2022-10-29T05:16:43.176Z,44.54
2022-10-29T05:19:31.677Z,44.41
2022-10-29T05:22:20.378Z,44.39
2022-10-29T05:25:09.247Z,44.50
2022-10-29T05:28:05.217Z,44.59
2022-10-29T05:30:55.305Z,44.60
2022-10-29T05:33:43.757Z,44.59
2022-10-29T05:36:32.193Z,44.66
2022-10-29T05:39:20.636Z,44.45
2022-10-29T05:42:09.062Z,44.40
2022-10-29T05:44:57.739Z,44.32
2022-10-29T05:47:47.661Z,44.43
2022-10-29T05:50:36.592Z,44.39
2022-10-29T05:53:25.217Z,44.28
2022-10-29T05:56:13.678Z,44.51
2022-10-29T05:59:02.382Z,44.41
2022-10-29T06:01:50.953Z,44.43
2022-10-29T06:04:40.891Z,44.25
2022-10-29T06:07:29.317Z,44.38
2022-10-29T06:10:17.987Z,44.56
2022-10-29T06:13:11.837Z,44.52
2022-10-29T06:16:01.551Z,44.46
2022-10-29T06:18:50.267Z,44.26
2022-10-29T06:21:40.264Z,44.23
2022-10-29T06:24:28.797Z,44.46
2022-10-29T06:27:17.316Z,44.31
2022-10-29T06:30:06.562Z,44.19
2022-10-29T06:32:55.326Z,44.45
2022-10-29T06:35:43.911Z,44.05
2022-10-29T06:38:33.774Z,44.12
2022-10-29T06:41:25.221Z,44.23
2022-10-29T06:44:13.640Z,44.40
2022-10-29T06:47:02.085Z,44.30
2022-10-29T06:49:50.564Z,44.33
2022-10-29T06:52:39.176Z,44.35
2022-10-29T06:55:29.396Z,44.24
2022-10-29T06:58:20.647Z,44.12
2022-10-29T07:01:09.281Z,44.09
2022-10-29T07:03:57.816Z,44.17
2022-10-29T07:06:46.270Z,43.97
2022-10-29T07:09:34.717Z,44.17
2022-10-29T07:12:24.586Z,44.12
2022-10-29T07:15:13.740Z,44.17
2022-10-29T07:18:03.629Z,44.26
2022-10-29T07:20:52.067Z,44.13
2022-10-29T07:23:40.512Z,43.99
2022-10-29T07:26:28.935Z,44.10
2022-10-29T07:29:18.925Z,43.97
2022-10-29T07:32:07.473Z,43.80
2022-10-29T07:34:55.946Z,44.02
2022-10-29T07:37:44.447Z,44.03
2022-10-29T07:40:33.002Z,43.97
2022-10-29T07:43:22.580Z,44.03
2022-10-29T07:46:12.392Z,43.95
2022-10-29T07:49:00.815Z,43.94
2022-10-29T07:51:49.874Z,44.00
2022-10-29T07:54:38.486Z,43.37
2022-10-29T07:57:27.003Z,43.08
2022-10-29T08:00:16.201Z,42.56
2022-10-29T08:03:06.226Z,42.14
2022-10-29T08:05:58.422Z,42.35
2022-10-29T08:08:46.886Z,42.16
2022-10-29T08:11:35.812Z,41.99
2022-10-29T08:14:24.518Z,42.09
2022-10-29T08:17:12.956Z,41.89
2022-10-29T08:20:02.805Z,42.33
2022-10-29T08:22:51.280Z,42.15
2022-10-29T08:25:42.768Z,41.83
2022-10-29T08:28:35.514Z,41.87
2022-10-29T08:31:24.329Z,42.16
2022-10-29T08:34:13.002Z,42.49
2022-10-29T08:37:03.765Z,42.38
2022-10-29T08:39:52.190Z,42.27
2022-10-29T08:42:45.485Z,42.47
2022-10-29T08:45:39.097Z,42.52
2022-10-29T08:48:37.711Z,42.05
2022-10-29T08:51:30.090Z,41.88
2022-10-29T08:54:35.263Z,42.03
2022-10-29T08:57:27.234Z,42.27
2022-10-29T09:00:17.839Z,42.71
2022-10-29T09:03:11.380Z,42.22
2022-10-29T09:06:07.608Z,42.15
2022-10-29T09:09:09.754Z,43.02
2022-10-29T09:12:09.163Z,42.50
2022-10-29T09:15:28.991Z,41.88
2022-10-29T09:18:26.510Z,42.03
2022-10-29T09:21:23.297Z,42.18
2022-10-29T09:24:15.700Z,42.77
2022-10-29T09:27:10.626Z,42.97
2022-10-29T09:30:06.450Z,43.05
2022-10-29T09:32:58.770Z,42.94
2022-10-29T09:35:49.988Z,43.01
2022-10-29T09:38:42.587Z,42.95
2022-10-29T09:41:34.575Z,43.58
2022-10-29T09:44:27.191Z,43.47
2022-10-29T09:47:30.293Z,43.48
2022-10-29T09:50:23.618Z,43.31
2022-10-29T09:53:12.297Z,43.60
2022-10-29T09:56:00.752Z,43.33
2022-10-29T09:58:55.266Z,43.17
2022-10-29T10:01:45.088Z,43.01
2022-10-29T10:04:37.820Z,43.36
2022-10-29T10:07:26.273Z,43.49
2022-10-29T10:10:22.327Z,43.07
2022-10-29T10:13:17.196Z,43.18
2022-10-29T10:16:07.970Z,43.11
2022-10-29T10:18:57.823Z,43.32
2022-10-29T10:21:58.023Z,43.04
2022-10-29T10:24:46.605Z,43.17
2022-10-29T10:27:35.035Z,43.06
2022-10-29T10:30:24.137Z,43.16
2022-10-29T10:33:14.426Z,42.85
2022-10-29T10:36:07.073Z,42.42
2022-10-29T10:38:57.113Z,42.16
2022-10-29T10:41:45.713Z,42.13
2022-10-29T10:44:34.312Z,42.19
2022-10-29T10:47:24.804Z,41.87
2022-10-29T10:50:14.535Z,42.18
2022-10-29T10:53:06.090Z,42.27
2022-10-29T10:55:57.862Z,42.28
2022-10-29T10:58:50.832Z,41.95
2022-10-29T11:01:43.050Z,41.37
2022-10-29T11:04:35.102Z,41.22
2022-10-29T11:07:25.367Z,41.19
2022-10-29T11:10:15.684Z,41.80
2022-10-29T11:13:09.279Z,42.21
2022-10-29T11:16:02.025Z,42.61
2022-10-29T11:18:55.655Z,42.95
2022-10-29T11:21:47.119Z,42.66
2022-10-29T11:24:43.662Z,41.98
2022-10-29T11:27:39.221Z,42.01
2022-10-29T11:30:29.120Z,41.59
2022-10-29T11:33:23.425Z,41.71
2022-10-29T11:36:16.575Z,42.51
2022-10-29T11:39:10.885Z,42.20
2022-10-29T11:42:00.365Z,42.06
2022-10-29T11:44:50.073Z,41.34
2022-10-29T11:47:46.608Z,41.17
2022-10-29T11:50:41.286Z,41.89
2022-10-29T11:53:42.616Z,41.93
2022-10-29T11:56:48.733Z,41.21
2022-10-29T11:59:44.572Z,41.03
2022-10-29T12:02:47.696Z,41.17
2022-10-29T12:05:41.737Z,41.26
2022-10-29T12:08:43.876Z,41.11
2022-10-29T12:11:42.889Z,41.03
2022-10-29T12:14:35.190Z,40.94
2022-10-29T12:17:27.599Z,40.68
2022-10-29T12:20:23.470Z,41.40
2022-10-29T12:23:25.326Z,41.37
2022-10-29T12:26:17.981Z,41.31
2022-10-29T12:29:13.068Z,40.62
2022-10-29T12:32:06.859Z,40.77
2022-10-29T12:35:02.720Z,40.76
2022-10-29T12:38:04.282Z,40.81
2022-10-29T12:40:57.004Z,41.36
2022-10-29T12:43:45.897Z,41.66
2022-10-29T12:46:40.271Z,41.40
2022-10-29T12:49:40.621Z,41.62
2022-10-29T12:52:50.831Z,42.06
2022-10-29T12:55:42.230Z,41.95
2022-10-29T12:58:52.711Z,42.13
2022-10-29T13:05:43.544Z,42.31
2022-10-29T13:08:36.110Z,42.12
2022-10-29T13:11:48.296Z,42.54
2022-10-29T13:14:40.334Z,42.37
2022-10-29T13:17:30.862Z,42.67
2022-10-29T13:20:25.144Z,42.38
2022-10-29T13:23:35.977Z,41.95
2022-10-29T13:26:58.899Z,42.15
2022-10-29T13:29:49.838Z,41.98
2022-10-29T13:32:39.109Z,41.89
2022-10-29T13:35:41.797Z,41.86
2022-10-29T13:38:57.797Z,41.84
2022-10-29T13:41:52.817Z,42.06
2022-10-29T13:44:42.830Z,42.04
2022-10-29T13:47:31.703Z,41.78
2022-10-29T13:50:20.975Z,41.88
2022-10-29T13:53:13.692Z,41.94
2022-10-29T13:56:02.719Z,42.01
2022-10-29T13:58:53.002Z,42.35
2022-10-29T14:01:50.489Z,42.31
2022-10-29T14:04:40.575Z,42.48
2022-10-29T14:07:32.744Z,42.36
2022-10-29T14:10:24.799Z,42.39
2022-10-29T14:13:28.361Z,42.19
2022-10-29T14:16:20.658Z,42.64
2022-10-29T14:19:16.506Z,42.48
2022-10-29T14:22:17.121Z,42.48
2022-10-29T14:25:27.150Z,42.42
2022-10-29T14:28:19.014Z,42.48
2022-10-29T14:31:09.099Z,42.47
2022-10-29T14:33:59.514Z,42.34
2022-10-29T14:36:50.510Z,42.42
2022-10-29T14:39:56.895Z,42.79
2022-10-29T14:42:48.646Z,43.04
2022-10-29T14:45:37.163Z,42.68
2022-10-29T14:48:25.702Z,42.93
2022-10-29T14:51:20.610Z,42.96
2022-10-29T14:54:17.940Z,43.16
2022-10-29T14:57:12.151Z,43.34
2022-10-29T15:00:02.056Z,43.08
2022-10-29T15:02:50.774Z,43.00
2022-10-29T15:05:40.557Z,43.27
2022-10-29T15:08:34.157Z,43.52
2022-10-29T15:11:40.607Z,43.32
2022-10-29T15:14:37.678Z,43.40
2022-10-29T15:17:28.465Z,43.59
2022-10-29T15:20:22.529Z,43.24
2022-10-29T15:23:20.179Z,43.44
2022-10-29T15:26:10.962Z,43.27
2022-10-29T15:29:02.843Z,43.76
2022-10-29T15:31:53.676Z,43.17
2022-10-29T15:34:48.746Z,42.73
2022-10-29T15:37:46.673Z,42.72
2022-10-29T15:40:35.174Z,42.89
2022-10-29T15:43:30.947Z,42.33
2022-10-29T15:46:25.120Z,42.29
2022-10-29T15:49:16.504Z,42.54
2022-10-29T15:52:05.433Z,42.38
2022-10-29T15:54:53.988Z,42.33
2022-10-29T15:57:43.940Z,42.38
2022-10-29T16:00:33.398Z,42.10
2022-10-29T16:03:25.181Z,41.90
2022-10-29T16:06:14.135Z,42.09
2022-10-29T16:09:02.820Z,41.90
2022-10-29T16:11:52.010Z,42.23
2022-10-29T16:14:40.502Z,42.14
2022-10-29T16:17:30.133Z,42.34
2022-10-29T16:20:21.087Z,41.87
2022-10-29T16:23:11.435Z,41.80
2022-10-29T16:25:59.838Z,41.80
2022-10-29T16:28:48.432Z,41.63
2022-10-29T16:31:36.936Z,41.60
2022-10-29T16:34:25.379Z,41.67
2022-10-29T16:37:16.866Z,41.76
2022-10-29T16:40:06.026Z,41.77
2022-10-29T16:42:55.289Z,42.13
2022-10-29T16:45:44.058Z,42.01
2022-10-29T16:48:32.679Z,41.91
2022-10-29T16:51:21.174Z,42.20
2022-10-29T16:54:10.972Z,42.47
2022-10-29T16:56:59.408Z,42.13
2022-10-29T16:59:47.933Z,42.11
2022-10-29T17:02:36.512Z,42.21
2022-10-29T17:05:25.036Z,42.41
2022-10-29T17:08:13.866Z,41.95
2022-10-29T17:11:05.966Z,41.49
2022-10-29T17:13:55.284Z,41.69
2022-10-29T17:16:43.745Z,42.40
2022-10-29T17:19:32.231Z,42.07
2022-10-29T17:22:20.904Z,41.98
2022-10-29T17:25:10.781Z,42.45
2022-10-29T17:28:00.742Z,42.42
2022-10-29T17:30:49.347Z,43.06
2022-10-29T17:33:37.830Z,42.90
2022-10-29T17:36:26.405Z,43.20
2022-10-29T17:39:14.820Z,43.32
2022-10-29T17:42:03.234Z,42.91
2022-10-29T17:44:53.002Z,43.14
2022-10-29T17:47:41.471Z,43.27
2022-10-29T17:50:29.855Z,43.49
2022-10-29T17:53:18.311Z,43.08
2022-10-29T17:56:07.459Z,43.29
2022-10-29T17:58:55.891Z,43.37
2022-10-29T18:01:46.375Z,43.83
2022-10-29T18:04:35.054Z,43.47
2022-10-29T18:07:23.664Z,43.52
2022-10-29T18:10:12.211Z,43.21
2022-10-29T18:13:00.761Z,43.25
2022-10-29T18:15:49.179Z,43.04
2022-10-29T18:18:54.289Z,43.22
2022-10-29T18:21:48.972Z,43.45
2022-10-29T18:24:37.382Z,43.67
2022-10-29T18:27:25.801Z,43.31
2022-10-29T18:30:14.577Z,42.92
2022-10-29T18:33:03.070Z,43.08
2022-10-29T18:35:55.644Z,43.38
2022-10-29T18:38:44.045Z,43.11
2022-10-29T18:41:32.819Z,43.45
2022-10-29T18:44:21.254Z,43.48
2022-10-29T18:47:09.776Z,43.63
2022-10-29T18:49:58.178Z,43.42
2022-10-29T18:52:47.970Z,43.45
2022-10-29T18:55:36.378Z,43.45
2022-10-29T18:58:24.918Z,43.72
2022-10-29T19:01:14.766Z,43.18
2022-10-29T19:04:07.134Z,43.53
2022-10-29T19:06:55.815Z,43.39
2022-10-29T19:09:45.555Z,43.70
2022-10-29T19:12:34.078Z,43.27
2022-10-29T19:15:22.472Z,43.80
2022-10-29T19:18:10.984Z,43.51
2022-10-29T19:21:03.693Z,43.94
2022-10-29T19:23:55.730Z,43.53
2022-10-29T19:26:45.683Z,43.70
2022-10-29T19:29:34.052Z,43.84
2022-10-29T19:32:22.447Z,43.80
2022-10-29T19:35:11.011Z,43.78
2022-10-29T19:37:59.737Z,43.70
2022-10-29T19:40:48.376Z,43.38
2022-10-29T19:43:38.209Z,43.64
2022-10-29T19:46:26.640Z,43.80
2022-10-29T19:49:15.920Z,43.36
2022-10-29T19:52:04.384Z,43.27
2022-10-29T19:54:52.858Z,43.42
2022-10-29T19:57:41.356Z,42.88
2022-10-29T20:00:31.104Z,42.94
2022-10-29T20:03:20.001Z,43.39
2022-10-29T20:06:09.367Z,43.47
2022-10-29T20:08:57.917Z,43.13
2022-10-29T20:11:46.373Z,43.34
2022-10-29T20:14:35.664Z,43.13
2022-10-29T20:17:25.460Z,43.37
2022-10-29T20:20:17.021Z,43.32
2022-10-29T20:23:06.071Z,43.38
2022-10-29T20:25:54.600Z,43.48
2022-10-29T20:28:43.340Z,43.25
2022-10-29T20:31:37.215Z,43.68
2022-10-29T20:34:30.935Z,43.23
2022-10-29T20:37:19.619Z,43.11
2022-10-29T20:40:09.071Z,43.32
2022-10-29T20:42:57.621Z,43.10
2022-10-29T20:45:46.109Z,42.87
2022-10-29T20:48:36.258Z,42.72
2022-10-29T20:51:26.465Z,42.37
2022-10-29T20:54:15.022Z,42.06
2022-10-29T20:57:03.412Z,42.16
2022-10-29T20:59:51.890Z,42.57
2022-10-29T21:02:40.434Z,42.93
2022-10-29T21:05:31.646Z,42.70
2022-10-29T21:08:21.816Z,42.76
2022-10-29T21:11:12.118Z,42.90
2022-10-29T21:14:00.691Z,43.33
2022-10-29T21:16:49.359Z,43.13
2022-10-29T21:19:42.214Z,43.21
2022-10-29T21:22:30.656Z,43.23
2022-10-29T21:25:20.445Z,43.10
2022-10-29T21:28:08.889Z,43.63
2022-10-29T21:30:57.348Z,43.24
2022-10-29T21:33:46.004Z,43.24
2022-10-29T21:36:34.424Z,42.74
2022-10-29T21:39:22.842Z,42.23
2022-10-29T21:42:12.659Z,42.15
2022-10-29T21:45:04.033Z,42.07
2022-10-29T21:47:52.469Z,41.96
2022-10-29T21:50:41.136Z,41.73
2022-10-29T21:53:29.930Z,41.84
2022-10-29T21:56:18.376Z,41.48
2022-10-29T21:59:08.377Z,41.60
2022-10-29T22:01:56.884Z,41.46
2022-10-29T22:04:45.455Z,41.35
2022-10-29T22:07:33.906Z,41.74
2022-10-29T22:10:22.494Z,41.62
2022-10-29T22:13:14.293Z,41.61
2022-10-29T22:16:05.361Z,42.21
2022-10-29T22:18:54.297Z,42.68
2022-10-29T22:21:42.829Z,43.26
2022-10-29T22:24:31.340Z,43.37
2022-10-29T22:27:19.840Z,43.82
2022-10-29T22:30:10.767Z,43.87
2022-10-29T22:33:00.590Z,43.59
2022-10-29T22:35:49.050Z,43.73
2022-10-29T22:38:38.144Z,43.88
2022-10-29T22:41:27.274Z,43.68
2022-10-29T22:44:15.774Z,44.20
2022-10-29T22:47:04.207Z,43.94
2022-10-29T22:49:55.375Z,43.85
2022-10-29T22:52:43.808Z,44.17
2022-10-29T22:55:32.214Z,44.22
2022-10-29T22:58:20.749Z,44.06
2022-10-29T23:01:10.585Z,43.96
2022-10-29T23:03:59.880Z,44.16
2022-10-29T23:06:49.703Z,44.15
2022-10-29T23:09:38.221Z,44.20
2022-10-29T23:12:26.653Z,44.29
2022-10-29T23:15:15.179Z,44.20
2022-10-29T23:18:03.544Z,44.21
2022-10-29T23:20:59.897Z,44.18
2022-10-29T23:23:50.410Z,44.24
2022-10-29T23:26:38.881Z,44.24
2022-10-29T23:29:27.347Z,44.20
2022-10-29T23:32:15.861Z,44.17
2022-10-29T23:35:04.378Z,44.46
2022-10-29T23:37:52.912Z,44.31
2022-10-29T23:40:44.424Z,44.39
2022-10-29T23:43:33.251Z,44.24
2022-10-29T23:46:21.699Z,44.24
2022-10-29T23:49:10.595Z,44.29
2022-10-29T23:51:59.092Z,44.09
2022-10-29T23:54:47.614Z,44.26
2022-10-29T23:57:37.405Z,44.46
